Dover, VT

3:25 PM EDT on August 28, 2015 (GMT -0400)
Mt. Snow/Suntec Forest | | Change Station
CLOSE
Current Station
Personal Weather Station
Location: West Dover, VT
Elevation: 1932 ft
Nearby Weather Stations

Elev 1932 ft 42.95 °N, 72.89 °W | Updated 48 seconds ago

Partly Cloudy
Partly Cloudy
68.7 °F
Feels Like 68.7 °F
N
0.0
Wind Variable Wind from East
Gusts 1.0 mph

Today
High -- | Low -- °F
--% Chance of Precip.
Yesterday
High -- | Low -- °F
Precip. -- in
6:11 AM 7:33 PM
Waxing Gibbous, 99% visible
Pressure 30.16 in
Visibility 10.0 miles
Clouds Mostly Cloudy 4700 ft
Overcast 5500 ft
Dew Point 60 °F
Humidity 67%
Rainfall in
Snow Depth Not available.
UV 2 out of 12
Pollen 9.10 out of 12
Air Quality Not available.
Flu Activity Not available.
METAR KDDH 281854Z AUTO 34007KT 10SM BKN047 OVC055 23/12 A3017 RMK AO2 SLP213 T02330122
Pressure 30.16 in
Visibility 10.0 miles
Clouds Mostly Cloudy 4700 ft
Overcast 5500 ft
Dew Point 60 °F
Humidity 67%
Rainfall in
Snow Depth Not available.
UV 2 out of 12
Pollen 9.10 out of 12
Air Quality Not available.
Flu Activity Not available.
METAR KDDH 281854Z AUTO 34007KT 10SM BKN047 OVC055 23/12 A3017 RMK AO2 SLP213 T02330122

10-Day Weather Forecast

×

Almanac

Astronomy

Aug. 28, 2015 Rise Set
Actual Time
Civil Twilight
Nautical Twilight
Astronomical Twilight
Moon
Length of Visible Light
Length of Day
Tomorrow will be .
, % of the Moon is Illuminated

Today's Extremes

State Highs State Lows

Community

WunderPhotos

Upload Photos

1,850,462 photos uploaded!

WunderBlogs® & News

Nearby

Air Quality

  Air Quality AQ Index Pollutant
Not available.

Snow Depth

Station Depth Elevation

Earthquake Activity

City Distance Mag. Time & Date
Minimum magnitude displayed is 2.5.

Coastal Water Temperatures

Place Temperature

Stations

Nearby Weather Stations

Station Location Temp. Windchill Dew Point Humidity Wind Precip. Elev Updated Type